South Alabama Regional At Bill Benton Field Airport
K79J : now visible

Airfield :











YOU CAN JOIN US ON...

 
LOGIN :

Register | Disclaimer

   EN    FR    IT 

 









Legend :    VFR   Marginal VFR   IFR   Intensive IFR   Very Intensive IFR
Visi :
Ceiling :
>= 8 km
>= 3000ft
5 to 8 km
1000 to 3000 ft
1500m to 5 km
500 to 1000 ft
800 to 1500m
200 to 500 ft
< 800m
< 200 ft
Symbols :   Thunderstorms  Fog  Heavy snow  Heavy precipitations  Wind > 20 kt






- Airport Elevation : 310 ft


K79J - South Alabama Regional At Bill Benton Field

CURRENT METAR :
  • 290656Z AUTO 00000KT 9SM CLR 11/08 A3004 RMK AO2 SLP168 T01060083

EXPIRED METARs :
  • 290556Z AUTO 00000KT 10SM CLR 11/09 A3003 RMK AO2 SLP167 T01110089 10156 20111 58006
  • 290456Z AUTO 09003KT 10SM CLR 12/09 A3005 RMK AO2 SLP172 T01170094 402440117

TAF N/A



MET'MAP, your aeronautical weather chart ! - Copyright ORBIFLY December 2007 - Disclaimer

ORBIFLY MET'MAP TEAM :

Programming & Development : Alexandra Zaïnal
Original concept : Baudouin d'Aumeries
Technical & hardware support : Manuel Goepfert
Assistance : Marc-Olivier Méhu




SOURCES & CREDITS :

   NOAA       Earth
Advisory